»·PEaware :: UAL1083 KPDX-KPHX

UAL1083 :: KPDX-KPHX

FLIGHT INFORMATION

Flight Status: Arrived
Operator:
United Airlines
More flights by this operator :: More flights under this callsign
Pilot: Chuck O. (4337)
Aircraft: AIRBUS A320
(A320)
More flights by this aircraft type
Origin: KPDX Portland Intl
United States
Destination: KPHX Phoenix Sky Harbor Intl
United States
More flights between these airports :: More routes between these airports
Route: +DRK BRUSR1
File this flight plan on PilotEdge
Remarks:
Altitude:
(Current/Filed)
35,000ft
Speed:
(Current/Filed)
450kts
Departed: 14-Sep-18 04:43 PM
Arrived: 14-Sep-18 07:07 PM
Distance/Time
Traveled:
877nm/2:23
Distance/Time
To Go:
Arrived

Flight Plot

Page will automatically refresh every two minutes.

Flight plan parsing failed; only flown route is shown


Map Options




Map Legend


Flown Route
Filed Route
Departure Airport
Arrival Airport
Navaid (VOR, NDB)
Fix

Horizontal Profiles

Position Reports

Time Latitude Longitude Heading Altitude Ground
Speed
14-Sep-18 16:17 45.590488 -122.592241 209 32ft 0kts
14-Sep-18 16:18 45.590488 -122.592241 209 32ft 0kts
14-Sep-18 16:19 45.590488 -122.592241 209 32ft 0kts
14-Sep-18 16:20 45.590488 -122.592241 209 32ft 0kts
14-Sep-18 16:21 45.590488 -122.592241 209 32ft 0kts
14-Sep-18 16:22 45.590488 -122.592241 209 32ft 0kts
14-Sep-18 16:23 45.590488 -122.592241 209 32ft 0kts
14-Sep-18 16:24 45.590488 -122.592241 209 32ft 0kts
14-Sep-18 16:25 45.590488 -122.592241 209 32ft 0kts
14-Sep-18 16:26 45.590488 -122.592241 209 32ft 0kts
14-Sep-18 16:27 45.590488 -122.592241 209 32ft 0kts
14-Sep-18 16:28 45.590779 -122.592046 195 32ft 2kts
14-Sep-18 16:29 45.591213 -122.592240 119 32ft 0kts
14-Sep-18 16:30 45.591213 -122.592240 119 32ft 0kts
14-Sep-18 16:31 45.591212 -122.592239 119 32ft 0kts
14-Sep-18 16:32 45.591212 -122.592239 119 32ft 0kts
14-Sep-18 16:33 45.591212 -122.592238 119 32ft 0kts
14-Sep-18 16:34 45.591211 -122.592237 119 32ft 0kts
14-Sep-18 16:35 45.590667 -122.590855 118 32ft 11kts
14-Sep-18 16:36 45.590418 -122.590197 116 32ft 0kts
14-Sep-18 16:37 45.590406 -122.590161 116 32ft 2kts
14-Sep-18 16:38 45.588900 -122.583500 120 32ft 24kts
14-Sep-18 16:39 45.586069 -122.576274 119 32ft 16kts
14-Sep-18 16:40 45.583682 -122.570241 121 32ft 0kts
14-Sep-18 16:41 45.583506 -122.569346 65 32ft 0kts
14-Sep-18 16:42 45.583506 -122.569345 65 32ft 0kts
14-Sep-18 16:43 45.583506 -122.569344 65 32ft 0kts
14-Sep-18 16:44 45.584189 -122.568767 342 32ft 14kts
14-Sep-18 16:45 45.589580 -122.582362 300 32ft 137kts
14-Sep-18 16:46 45.614693 -122.641756 279 2027ft 196kts
14-Sep-18 16:47 45.639514 -122.725481 299 4023ft 260kts
14-Sep-18 16:48 45.671632 -122.820412 270 7134ft 271kts
14-Sep-18 16:49 45.640824 -122.915546 211 10047ft 278kts
14-Sep-18 16:50 45.560524 -122.900900 156 11698ft 335kts
14-Sep-18 16:51 45.507859 -122.786865 115 13958ft 364kts
14-Sep-18 16:52 45.467922 -122.655387 119 15894ft 379kts
14-Sep-18 16:53 45.425811 -122.521191 118 17738ft 392kts
14-Sep-18 16:54 45.380587 -122.377423 119 19547ft 404kts
14-Sep-18 16:55 45.334281 -122.230840 119 21208ft 415kts
14-Sep-18 16:56 45.286318 -122.079434 120 22735ft 425kts
14-Sep-18 16:57 45.228984 -121.933099 135 24123ft 423kts
14-Sep-18 16:58 45.153196 -121.803977 136 25394ft 432kts
14-Sep-18 16:59 45.076725 -121.670693 136 26606ft 439kts
14-Sep-18 17:00 44.998522 -121.535914 137 27785ft 446kts
14-Sep-18 17:01 44.919417 -121.400127 137 28848ft 453kts
14-Sep-18 17:02 44.838424 -121.261859 139 29843ft 459kts
14-Sep-18 17:03 44.757193 -121.123845 139 31068ft 457kts
14-Sep-18 17:04 44.676139 -120.986986 141 32212ft 455kts
14-Sep-18 17:05 44.594983 -120.850475 142 33291ft 453kts
14-Sep-18 17:06 44.514590 -120.715684 143 34288ft 450kts
14-Sep-18 17:07 44.433844 -120.581195 144 34977ft 449kts
14-Sep-18 17:08 44.354477 -120.449605 145 34971ft 448kts
14-Sep-18 17:09 44.277019 -120.321432 145 34971ft 447kts
14-Sep-18 17:10 44.196578 -120.189397 146 34978ft 446kts
14-Sep-18 17:11 44.116496 -120.058204 146 34962ft 445kts
14-Sep-18 17:12 44.035900 -119.927073 146 34939ft 445kts
14-Sep-18 17:13 43.955501 -119.796609 146 34932ft 445kts
14-Sep-18 17:14 43.874894 -119.666439 146 34934ft 444kts
14-Sep-18 17:15 43.795083 -119.538064 146 34944ft 445kts
14-Sep-18 17:16 43.712901 -119.406864 146 34991ft 445kts
14-Sep-18 17:17 43.631761 -119.277648 146 34996ft 446kts
14-Sep-18 17:18 43.551863 -119.150961 146 34950ft 449kts
14-Sep-18 17:19 43.469495 -119.020808 146 35040ft 448kts
14-Sep-18 17:20 43.375313 -118.930430 171 35027ft 397kts
14-Sep-18 17:21 43.272781 -118.871718 169 35034ft 402kts
14-Sep-18 17:22 43.170938 -118.810790 170 35028ft 401kts
14-Sep-18 17:23 43.068103 -118.749418 169 35020ft 401kts
14-Sep-18 17:24 42.965454 -118.689045 168 35010ft 403kts
14-Sep-18 17:25 42.866679 -118.606568 160 34974ft 420kts
14-Sep-18 17:26 42.768931 -118.522264 161 34951ft 418kts
14-Sep-18 17:27 42.670197 -118.437642 161 34923ft 419kts
14-Sep-18 17:28 42.571641 -118.353441 160 34923ft 419kts
14-Sep-18 17:29 42.474758 -118.271091 160 34977ft 419kts
14-Sep-18 17:30 42.375702 -118.187079 160 35008ft 420kts
14-Sep-18 17:31 42.276716 -118.103540 160 35005ft 420kts
14-Sep-18 17:32 42.177312 -118.019898 160 35006ft 420kts
14-Sep-18 17:33 42.078466 -117.936917 160 35002ft 420kts
14-Sep-18 17:34 41.980326 -117.854985 160 34992ft 420kts
14-Sep-18 17:35 41.880591 -117.772095 160 34970ft 420kts
14-Sep-18 17:36 41.782295 -117.690046 160 34939ft 421kts
14-Sep-18 17:37 41.682366 -117.607990 160 34941ft 421kts
14-Sep-18 17:38 41.582300 -117.525468 160 34939ft 422kts
14-Sep-18 17:39 41.482143 -117.443543 160 34951ft 422kts
14-Sep-18 17:40 41.381663 -117.361429 160 34946ft 424kts
14-Sep-18 17:41 41.280923 -117.279506 159 34987ft 425kts
14-Sep-18 17:42 41.180045 -117.197635 159 35015ft 425kts
14-Sep-18 17:43 41.078720 -117.115546 159 35024ft 427kts
14-Sep-18 17:44 40.978760 -117.034961 159 35025ft 427kts
14-Sep-18 17:45 40.875811 -116.952684 159 35021ft 427kts
14-Sep-18 17:46 40.773896 -116.871155 159 35012ft 427kts
14-Sep-18 17:47 40.672093 -116.790014 158 34986ft 428kts
14-Sep-18 17:48 40.570208 -116.709175 158 34965ft 429kts
14-Sep-18 17:49 40.467918 -116.628228 158 35011ft 428kts
14-Sep-18 17:50 40.365290 -116.547488 158 34973ft 429kts
14-Sep-18 17:51 40.262643 -116.466688 158 34962ft 430kts
14-Sep-18 17:52 40.159985 -116.386387 158 34963ft 431kts
14-Sep-18 17:53 40.063588 -116.311226 158 35013ft 430kts
14-Sep-18 17:54 39.960455 -116.231128 157 35029ft 430kts
14-Sep-18 17:55 39.857506 -116.151520 158 35046ft 430kts
14-Sep-18 17:56 39.754377 -116.072033 158 35072ft 430kts
14-Sep-18 17:57 39.651713 -115.993086 158 35076ft 431kts
14-Sep-18 17:58 39.548186 -115.913794 157 35076ft 431kts
14-Sep-18 17:59 39.444764 -115.834865 157 35077ft 431kts
14-Sep-18 18:00 39.341367 -115.756267 157 35085ft 432kts
14-Sep-18 18:01 39.255039 -115.690895 157 35094ft 432kts
14-Sep-18 18:02 39.133969 -115.599358 157 35103ft 431kts
14-Sep-18 18:03 39.030354 -115.521425 157 35077ft 431kts
14-Sep-18 18:04 38.926775 -115.443782 157 35086ft 430kts
14-Sep-18 18:05 38.840743 -115.379500 157 35042ft 431kts
14-Sep-18 18:06 38.719673 -115.289279 157 35041ft 431kts
14-Sep-18 18:07 38.633144 -115.225039 157 35102ft 430kts
14-Sep-18 18:08 38.529240 -115.148214 157 35105ft 431kts
14-Sep-18 18:09 38.425453 -115.071586 156 35085ft 432kts
14-Sep-18 18:10 38.321479 -114.995170 156 35073ft 432kts
14-Sep-18 18:11 38.216831 -114.918465 156 35062ft 432kts
14-Sep-18 18:12 38.112858 -114.842536 156 35054ft 432kts
14-Sep-18 18:13 38.008617 -114.766656 156 35039ft 432kts
14-Sep-18 18:14 37.903842 -114.690575 156 34958ft 434kts
14-Sep-18 18:16 37.693805 -114.539060 156 35028ft 439kts
14-Sep-18 18:17 37.587494 -114.462665 156 35041ft 437kts
14-Sep-18 18:18 37.482648 -114.387664 156 35028ft 435kts
14-Sep-18 18:19 37.377342 -114.312348 156 34947ft 435kts
14-Sep-18 18:20 37.271696 -114.237248 156 34931ft 438kts
14-Sep-18 18:21 37.165671 -114.162020 155 35009ft 438kts
14-Sep-18 18:22 37.061700 -114.088579 155 35012ft 437kts
14-Sep-18 18:23 36.959253 -114.016321 155 34956ft 437kts
14-Sep-18 18:24 36.854546 -113.942817 155 34894ft 438kts
14-Sep-18 18:25 36.747890 -113.868188 155 34904ft 439kts
14-Sep-18 18:26 36.641340 -113.793825 155 34957ft 439kts
14-Sep-18 18:27 36.534614 -113.719535 155 34996ft 440kts
14-Sep-18 18:28 36.427478 -113.645294 155 35040ft 440kts
14-Sep-18 18:29 36.324097 -113.571268 159 35043ft 437kts
14-Sep-18 18:30 36.222076 -113.504043 154 35060ft 440kts
14-Sep-18 18:31 36.114971 -113.429912 155 35097ft 439kts
14-Sep-18 18:32 36.008702 -113.357087 155 35100ft 440kts
14-Sep-18 18:33 35.901654 -113.284099 155 35084ft 441kts
14-Sep-18 18:34 35.793918 -113.210703 155 35092ft 442kts
14-Sep-18 18:35 35.686089 -113.137629 154 35153ft 443kts
14-Sep-18 18:36 35.578127 -113.064638 154 34284ft 443kts
14-Sep-18 18:37 35.469628 -112.991297 154 33293ft 447kts
14-Sep-18 18:38 35.359802 -112.917623 154 32301ft 451kts
14-Sep-18 18:39 35.249376 -112.843577 154 31311ft 455kts
14-Sep-18 18:40 35.137869 -112.769017 154 30317ft 455kts
14-Sep-18 18:41 35.027398 -112.695578 154 29323ft 449kts
14-Sep-18 18:42 34.917706 -112.622762 154 29070ft 449kts
14-Sep-18 18:43 34.808872 -112.550646 154 28086ft 443kts
14-Sep-18 18:44 34.701397 -112.478773 148 27024ft 439kts
14-Sep-18 18:45 34.606537 -112.386443 142 24717ft 433kts
14-Sep-18 18:46 34.513709 -112.296404 143 22326ft 422kts
14-Sep-18 18:47 34.420403 -112.222412 167 20562ft 369kts
14-Sep-18 18:48 34.321277 -112.198200 169 18678ft 363kts
14-Sep-18 18:49 34.224270 -112.172706 169 16902ft 349kts
14-Sep-18 18:50 34.130736 -112.148629 169 15348ft 334kts
14-Sep-18 18:51 34.045148 -112.120927 162 14211ft 313kts
14-Sep-18 18:52 33.964026 -112.087422 162 12803ft 302kts
14-Sep-18 18:53 33.885536 -112.055582 162 11395ft 294kts
14-Sep-18 18:54 33.809120 -112.024527 162 10116ft 293kts
14-Sep-18 18:55 33.732560 -111.993556 163 8872ft 289kts
14-Sep-18 18:56 33.680171 -111.972358 163 8407ft 270kts
14-Sep-18 18:57 33.610369 -111.944150 163 7542ft 252kts
14-Sep-18 18:58 33.548766 -111.919147 163 7040ft 212kts
14-Sep-18 18:59 33.527287 -111.860767 89 7062ft 217kts
14-Sep-18 19:00 33.529911 -111.790496 88 7049ft 207kts
14-Sep-18 19:01 33.520604 -111.726736 152 6983ft 197kts
14-Sep-18 19:02 33.469256 -111.711708 170 5817ft 186kts
14-Sep-18 19:03 33.436785 -111.741679 288 4110ft 179kts
14-Sep-18 19:04 33.440534 -111.800660 268 4053ft 178kts
14-Sep-18 19:05 33.440690 -111.854413 268 3392ft 155kts
14-Sep-18 19:06 33.440740 -111.904677 268 2615ft 149kts
14-Sep-18 19:07 33.440792 -111.953847 270 1805ft 146kts
14-Sep-18 19:08 33.440895 -112.001344 272 1149ft 127kts
14-Sep-18 19:09 33.440413 -112.010705 229 1149ft 8kts
14-Sep-18 19:10 33.440115 -112.010987 209 1149ft 0kts
14-Sep-18 19:11 33.439614 -112.011212 187 1149ft 9kts
14-Sep-18 19:12 33.439041 -112.009548 90 1149ft 24kts
14-Sep-18 19:13 33.437929 -112.004645 180 1149ft 14kts
14-Sep-18 19:14 33.433286 -112.004638 193 1149ft 18kts
14-Sep-18 19:15 33.432820 -112.009900 269 1149ft 14kts
14-Sep-18 19:16 33.432813 -112.012013 268 1149ft 0kts
14-Sep-18 19:17 33.432833 -112.013088 272 1149ft 11kts
14-Sep-18 19:18 33.433211 -112.015466 0 1149ft 5kts
14-Sep-18 19:19 33.433491 -112.014658 89 1149ft 1kts
14-Sep-18 19:20 33.433491 -112.014637 89 1149ft 0kts
14-Sep-18 19:21 33.433491 -112.014636 89 1149ft 0kts
14-Sep-18 19:22 33.433491 -112.014636 89 1149ft 0kts
14-Sep-18 19:23 33.433491 -112.014636 89 1149ft 0kts

Navigation Log

Ident Type
Flight plan parsing failed, navigation log unavailable